Time;durP1;ratioP1;P1;durP2;ratioP2;P2;SDS_P1;SDS_P2;PMS_P1;PMS_P2;Temp;Humidity;BMP_temperature;BMP_pressure;BME280_temperature;BME280_humidity;BME280_pressure;Samples;Min_cycle;Max_cycle;Signal;HPM_P1;HPM_P2
2024/01/20 00:01:17;;;;;;;13.87;2.03;;;0.10;99.90;;;;;;4962698;28;20449;-69
2024/01/20 00:03:44;;;;;;;30.37;10.53;;;0.00;99.90;;;;;;4960850;28;20467;-69
2024/01/20 00:06:11;;;;;;;3.40;3.20;;;0.00;99.90;;;;;;4965936;28;20482;-69
2024/01/20 00:08:37;;;;;;;5.40;2.87;;;-0.10;99.90;;;;;;4961353;28;20463;-69
2024/01/20 00:11:05;;;;;;;7.07;3.70;;;-0.10;99.90;;;;;;4966962;28;20831;-69
2024/01/20 00:13:32;;;;;;;7.67;6.07;;;-0.10;99.90;;;;;;4959697;28;20464;-69
2024/01/20 00:15:59;;;;;;;6.20;3.17;;;-0.10;99.90;;;;;;4962325;28;20468;-69
2024/01/20 00:18:26;;;;;;;5.37;3.13;;;-0.10;99.90;;;;;;4966084;28;20502;-69
2024/01/20 00:20:52;;;;;;;1.77;1.60;;;-0.20;99.90;;;;;;4962400;28;20495;-69
2024/01/20 00:23:19;;;;;;;2.70;2.50;;;-0.10;99.90;;;;;;4952414;28;20448;-69
2024/01/20 00:25:46;;;;;;;5.80;2.50;;;-0.10;99.90;;;;;;4965031;28;21021;-68
2024/01/20 00:28:14;;;;;;;4.40;4.10;;;-0.10;99.90;;;;;;4964924;28;20459;-70
2024/01/20 00:30:40;;;;;;;2.57;2.37;;;-0.10;99.90;;;;;;4954301;28;20457;-69
2024/01/20 00:33:08;;;;;;;14.63;4.53;;;-0.20;99.90;;;;;;4964369;28;20775;-70
2024/01/20 00:35:36;;;;;;;2.53;2.43;;;-0.20;99.90;;;;;;4961365;28;20491;-69
2024/01/20 00:38:03;;;;;;;6.93;3.83;;;-0.20;99.90;;;;;;4961191;28;20479;-70
2024/01/20 00:40:30;;;;;;;9.37;4.30;;;-0.20;99.90;;;;;;4964532;28;20668;-69
2024/01/20 00:42:57;;;;;;;7.30;3.03;;;-0.10;99.90;;;;;;4954978;28;20985;-69
2024/01/20 00:45:25;;;;;;;4.53;2.90;;;-0.20;99.90;;;;;;4962892;28;20482;-69
2024/01/20 00:47:52;;;;;;;8.47;4.80;;;-0.20;99.90;;;;;;4964697;28;20537;-69
2024/01/20 00:50:19;;;;;;;5.73;3.33;;;-0.20;99.90;;;;;;4963728;28;20505;-69
2024/01/20 00:52:46;;;;;;;1.80;1.60;;;-0.20;99.90;;;;;;4965993;28;20461;-69
2024/01/20 00:55:13;;;;;;;8.00;2.73;;;-0.10;99.90;;;;;;4964241;28;20450;-68
2024/01/20 00:57:39;;;;;;;1.90;1.80;;;-0.20;99.90;;;;;;4963618;28;20475;-68
2024/01/20 01:00:09;;;;;;;4.77;2.70;;;-0.30;99.90;;;;;;4962601;28;20811;-70
2024/01/20 01:02:37;;;;;;;3.00;2.80;;;-0.30;99.90;;;;;;4960676;28;20521;-69
2024/01/20 01:05:05;;;;;;;2.17;1.60;;;-0.30;99.90;;;;;;4959090;28;20479;-70
2024/01/20 01:07:32;;;;;;;1.93;1.83;;;-0.30;99.90;;;;;;4967227;28;20441;-69
2024/01/20 01:09:59;;;;;;;9.70;2.20;;;-0.30;99.90;;;;;;4961178;28;20464;-69
2024/01/20 01:12:27;;;;;;;1.97;1.43;;;-0.30;99.90;;;;;;4949391;28;20482;-69
2024/01/20 01:14:54;;;;;;;9.70;3.57;;;-0.40;99.90;;;;;;4959268;28;20469;-69
2024/01/20 01:17:21;;;;;;;11.27;3.03;;;-0.40;99.90;;;;;;4960552;28;20463;-70
2024/01/20 01:19:49;;;;;;;11.53;4.60;;;-0.40;99.90;;;;;;4963429;28;20492;-69
2024/01/20 01:22:16;;;;;;;3.20;2.47;;;-0.40;99.90;;;;;;4962411;28;20455;-69
2024/01/20 01:24:43;;;;;;;2.50;2.30;;;-0.40;99.90;;;;;;4954446;28;20456;-68
2024/01/20 01:27:09;;;;;;;5.57;5.10;;;-0.50;99.90;;;;;;4960144;28;20487;-69
2024/01/20 01:29:36;;;;;;;2.77;2.57;;;-0.40;99.90;;;;;;4958639;28;20429;-69
2024/01/20 01:32:03;;;;;;;5.20;1.80;;;-0.40;99.90;;;;;;4961353;28;20429;-69
2024/01/20 01:34:30;;;;;;;7.77;4.57;;;-0.50;99.90;;;;;;4957832;28;20824;-69
2024/01/20 01:36:58;;;;;;;1.93;1.83;;;-0.50;99.90;;;;;;4961404;28;20419;-69
2024/01/20 01:39:24;;;;;;;4.73;2.63;;;-0.50;99.90;;;;;;4960291;28;20483;-70
2024/01/20 01:41:51;;;;;;;5.23;1.97;;;-0.50;99.90;;;;;;4960889;28;20886;-69
2024/01/20 01:44:18;;;;;;;10.27;3.90;;;-0.50;99.90;;;;;;4954882;28;20486;-69
2024/01/20 01:46:45;;;;;;;4.37;4.03;;;-0.50;99.90;;;;;;4960932;28;20873;-70
2024/01/20 01:49:12;;;;;;;4.60;3.77;;;-0.50;99.90;;;;;;4965431;28;20446;-70
2024/01/20 01:51:39;;;;;;;3.67;2.03;;;-0.60;99.90;;;;;;4960769;28;20434;-70
2024/01/20 01:54:09;;;;;;;4.57;4.17;;;-0.50;99.90;;;;;;4963530;28;20453;-70
2024/01/20 01:56:36;;;;;;;1.43;1.30;;;-0.50;99.90;;;;;;4961309;28;20784;-69
2024/01/20 01:59:03;;;;;;;1.63;1.53;;;-0.60;99.90;;;;;;4961801;28;20499;-69
2024/01/20 02:01:29;;;;;;;2.90;1.90;;;-0.70;99.90;;;;;;4959844;28;20984;-69
2024/01/20 02:03:57;;;;;;;3.17;1.97;;;-0.70;99.90;;;;;;4948668;28;20438;-70
2024/01/20 02:06:24;;;;;;;6.33;5.70;;;-0.60;99.90;;;;;;4959232;28;20490;-70
2024/01/20 02:08:51;;;;;;;3.47;2.43;;;-0.60;99.90;;;;;;4962834;28;21147;-70
2024/01/20 02:11:19;;;;;;;7.87;2.40;;;-0.60;99.90;;;;;;4960033;28;20565;-69
2024/01/20 02:13:46;;;;;;;4.40;2.87;;;-0.60;99.90;;;;;;4965068;28;20433;-69
2024/01/20 02:16:13;;;;;;;3.37;3.17;;;-0.70;99.90;;;;;;4965529;28;20449;-70
2024/01/20 02:18:40;;;;;;;4.57;2.20;;;-0.70;99.90;;;;;;4966772;28;20466;-69
2024/01/20 02:21:07;;;;;;;3.70;3.40;;;-0.80;99.90;;;;;;4963663;28;20429;-69
2024/01/20 02:23:38;;;;;;;8.87;3.57;;;-0.80;99.90;;;;;;4966117;28;20504;-69
2024/01/20 02:26:05;;;;;;;11.03;4.67;;;-0.80;99.90;;;;;;4966597;28;20449;-69
2024/01/20 02:28:32;;;;;;;4.77;3.70;;;-0.80;99.90;;;;;;4962854;28;20517;-70
2024/01/20 02:30:59;;;;;;;2.43;2.23;;;-0.80;99.90;;;;;;4966631;28;20977;-69
2024/01/20 02:33:25;;;;;;;4.30;3.90;;;-0.70;99.90;;;;;;4966102;28;20481;-70
2024/01/20 02:35:52;;;;;;;12.43;3.87;;;-0.80;99.90;;;;;;4963736;28;20573;-69
2024/01/20 02:38:19;;;;;;;5.03;4.40;;;-0.80;99.90;;;;;;4962922;28;20944;-70
2024/01/20 02:40:47;;;;;;;5.17;2.80;;;-0.90;99.90;;;;;;4962601;28;20999;-69
2024/01/20 02:43:15;;;;;;;7.37;4.13;;;-1.00;99.90;;;;;;4962344;28;20440;-69
2024/01/20 02:45:42;;;;;;;1.30;1.20;;;-1.00;99.90;;;;;;4966921;28;20502;-69
2024/01/20 02:48:10;;;;;;;4.30;3.10;;;-1.00;99.90;;;;;;4961944;28;20428;-69
2024/01/20 02:50:36;;;;;;;8.17;3.33;;;-1.00;99.90;;;;;;4960294;28;20525;-69
2024/01/20 02:53:03;;;;;;;3.27;2.60;;;-1.10;99.90;;;;;;4965531;28;20541;-69
2024/01/20 02:55:30;;;;;;;5.57;3.03;;;-1.10;99.90;;;;;;4965214;28;20460;-69
2024/01/20 02:57:58;;;;;;;18.07;5.30;;;-1.00;99.90;;;;;;4963709;28;20501;-69
2024/01/20 03:00:25;;;;;;;2.50;2.30;;;-1.10;99.90;;;;;;4960385;28;20739;-71
2024/01/20 03:02:52;;;;;;;6.83;5.33;;;-1.10;99.90;;;;;;4953472;28;20441;-69
2024/01/20 03:05:18;;;;;;;2.37;2.10;;;-1.10;99.90;;;;;;4962239;28;20518;-69
2024/01/20 03:07:45;;;;;;;6.20;3.80;;;-1.10;99.90;;;;;;4964294;28;20463;-69
2024/01/20 03:10:12;;;;;;;3.83;3.53;;;-1.10;99.90;;;;;;4961821;28;20445;-69
2024/01/20 03:12:39;;;;;;;4.40;4.07;;;-1.10;99.90;;;;;;4964489;28;20442;-69
2024/01/20 03:15:08;;;;;;;6.30;2.20;;;-1.10;99.90;;;;;;4963501;28;20475;-68
2024/01/20 03:17:35;;;;;;;3.43;3.13;;;-1.10;99.90;;;;;;4963865;28;20473;-69
2024/01/20 03:20:03;;;;;;;3.00;2.80;;;-1.20;99.90;;;;;;4962996;28;20491;-68
2024/01/20 03:22:30;;;;;;;12.60;4.87;;;-1.30;99.90;;;;;;4955977;28;20467;-69
2024/01/20 03:24:56;;;;;;;3.20;2.97;;;-1.20;99.90;;;;;;4957020;28;20457;-69
2024/01/20 03:27:23;;;;;;;16.63;3.20;;;-1.30;99.90;;;;;;4961911;28;20562;-68
2024/01/20 03:29:50;;;;;;;5.00;3.37;;;-1.30;99.90;;;;;;4963018;28;20433;-69
2024/01/20 03:32:18;;;;;;;3.87;2.57;;;-1.30;99.90;;;;;;4960343;28;20586;-70
2024/01/20 03:34:45;;;;;;;2.67;1.77;;;-1.20;99.90;;;;;;4963111;28;20475;-69
2024/01/20 03:37:12;;;;;;;5.80;3.20;;;-1.20;99.90;;;;;;4963891;28;20446;-69
2024/01/20 03:39:38;;;;;;;4.50;2.73;;;-1.20;99.90;;;;;;4967115;28;20461;-69
2024/01/20 03:42:05;;;;;;;2.70;2.50;;;-1.30;99.90;;;;;;4963296;28;20788;-68
2024/01/20 03:44:32;;;;;;;5.10;4.60;;;-1.20;99.90;;;;;;4966824;28;20468;-69
2024/01/20 03:46:59;;;;;;;3.93;3.63;;;-1.30;99.90;;;;;;4962229;28;20460;-69
2024/01/20 03:49:27;;;;;;;3.53;2.30;;;-1.20;99.90;;;;;;4963461;28;20469;-69
2024/01/20 03:51:53;;;;;;;5.57;4.80;;;-1.20;99.90;;;;;;4963175;28;20454;-70
2024/01/20 03:54:20;;;;;;;5.73;3.80;;;-1.30;99.90;;;;;;4962520;28;20425;-69
2024/01/20 03:56:47;;;;;;;3.53;3.23;;;-1.20;99.90;;;;;;4960096;28;20818;-69
2024/01/20 03:59:14;;;;;;;4.60;4.27;;;-1.20;99.90;;;;;;4960368;28;20487;-69
2024/01/20 04:01:40;;;;;;;8.70;4.40;;;-1.10;99.90;;;;;;4958516;28;20827;-69
2024/01/20 04:04:07;;;;;;;6.93;3.13;;;-1.10;99.90;;;;;;4950177;28;20832;-70
2024/01/20 04:06:35;;;;;;;5.67;3.30;;;-1.00;99.90;;;;;;4961633;28;20533;-69
2024/01/20 04:09:03;;;;;;;6.90;3.70;;;-1.00;99.90;;;;;;4961283;28;20524;-69
2024/01/20 04:11:30;;;;;;;5.97;4.63;;;-1.00;99.90;;;;;;4962847;28;20989;-69
2024/01/20 04:13:57;;;;;;;3.03;2.30;;;-1.10;99.90;;;;;;4961047;28;20426;-69
2024/01/20 04:16:24;;;;;;;5.10;4.20;;;-1.00;99.90;;;;;;4962014;28;21088;-69
2024/01/20 04:18:50;;;;;;;6.20;5.13;;;-1.00;99.90;;;;;;4965167;28;20469;-70
2024/01/20 04:21:17;;;;;;;2.30;2.10;;;-0.90;99.90;;;;;;4960961;28;20818;-70
2024/01/20 04:23:45;;;;;;;6.73;5.20;;;-0.90;99.90;;;;;;4964767;28;20438;-69
2024/01/20 04:26:12;;;;;;;7.90;3.23;;;-0.90;99.90;;;;;;4962337;28;21106;-69
2024/01/20 04:28:39;;;;;;;7.10;5.13;;;-0.90;99.90;;;;;;4969382;28;20442;-69
2024/01/20 04:31:05;;;;;;;6.37;4.23;;;-0.90;99.90;;;;;;4959602;28;20456;-68
2024/01/20 04:33:34;;;;;;;3.10;2.90;;;-0.90;99.90;;;;;;4965333;28;20433;-68
2024/01/20 04:36:01;;;;;;;2.10;2.00;;;-0.90;99.90;;;;;;4959003;28;20446;-68
2024/01/20 04:38:28;;;;;;;7.40;3.97;;;-0.90;99.90;;;;;;4958799;28;20498;-68
2024/01/20 04:40:56;;;;;;;3.83;2.03;;;-0.90;99.90;;;;;;4962341;28;20458;-68
2024/01/20 04:43:22;;;;;;;3.50;3.20;;;-0.90;99.90;;;;;;4964143;28;20466;-68
2024/01/20 04:45:48;;;;;;;4.20;3.80;;;-1.00;99.90;;;;;;4957442;28;20469;-68
2024/01/20 04:48:16;;;;;;;5.50;3.50;;;-1.00;99.90;;;;;;4966887;28;20434;-69
2024/01/20 04:50:42;;;;;;;28.63;6.37;;;-1.00;99.90;;;;;;4963011;28;20558;-69
2024/01/20 04:53:09;;;;;;;14.53;2.13;;;-1.00;99.90;;;;;;4961627;28;20506;-69
2024/01/20 04:55:36;;;;;;;3.27;3.03;;;-1.10;99.90;;;;;;4960788;28;20486;-69
2024/01/20 04:58:04;;;;;;;5.73;3.10;;;-1.00;99.90;;;;;;4964226;28;20462;-69
2024/01/20 05:00:31;;;;;;;4.80;3.17;;;-1.10;99.90;;;;;;4962474;28;20497;-69
2024/01/20 05:02:58;;;;;;;10.33;6.87;;;-1.10;99.90;;;;;;4959418;28;20475;-69
2024/01/20 05:05:24;;;;;;;6.27;5.20;;;-1.00;99.90;;;;;;4961005;28;20994;-69
2024/01/20 05:07:51;;;;;;;6.93;5.50;;;-1.00;99.90;;;;;;4963453;28;20457;-69
2024/01/20 05:10:18;;;;;;;5.23;4.80;;;-1.00;99.90;;;;;;4962984;28;20454;-69
2024/01/20 05:12:44;;;;;;;8.47;6.43;;;-1.00;99.90;;;;;;4957506;28;20461;-69
2024/01/20 05:15:12;;;;;;;4.10;3.43;;;-1.00;99.90;;;;;;4962835;28;20452;-69
2024/01/20 05:17:40;;;;;;;2.60;1.67;;;-0.90;99.90;;;;;;4963278;28;20462;-69
2024/01/20 05:20:07;;;;;;;4.10;2.83;;;-0.90;99.90;;;;;;4963084;28;20492;-69
2024/01/20 05:22:34;;;;;;;3.60;3.30;;;-1.00;99.90;;;;;;4958346;28;20426;-68
2024/01/20 05:25:03;;;;;;;5.70;5.27;;;-1.10;99.90;;;;;;4958708;28;20541;-68
2024/01/20 05:27:29;;;;;;;8.70;3.37;;;-1.00;99.90;;;;;;4963050;28;20444;-69
2024/01/20 05:29:56;;;;;;;9.03;4.23;;;-0.90;99.90;;;;;;4961798;28;20418;-68
2024/01/20 05:32:24;;;;;;;12.37;6.80;;;-1.00;99.90;;;;;;4962090;28;20542;-69
2024/01/20 05:34:51;;;;;;;12.93;5.93;;;-1.00;99.90;;;;;;4962386;28;21352;-69
2024/01/20 05:37:18;;;;;;;6.63;4.13;;;-0.90;99.90;;;;;;4961848;28;20451;-69
2024/01/20 05:39:44;;;;;;;7.10;4.90;;;-0.90;99.90;;;;;;4961883;28;20476;-69
2024/01/20 05:42:11;;;;;;;6.50;5.90;;;-0.90;99.90;;;;;;4963825;28;21044;-69
2024/01/20 05:44:38;;;;;;;14.03;3.57;;;-0.90;99.90;;;;;;4959628;28;20458;-69
2024/01/20 05:47:04;;;;;;;4.00;3.13;;;-0.90;99.90;;;;;;4961879;28;20822;-68
2024/01/20 05:49:33;;;;;;;18.97;7.10;;;-0.90;99.90;;;;;;4964790;28;20422;-68
2024/01/20 05:51:59;;;;;;;8.17;3.80;;;-0.80;99.90;;;;;;4962705;28;20479;-69
2024/01/20 05:54:26;;;;;;;12.70;6.63;;;-0.90;99.90;;;;;;4962453;28;20449;-68
2024/01/20 05:56:53;;;;;;;2.90;2.70;;;-0.90;99.90;;;;;;4960074;28;20630;-69
2024/01/20 05:59:20;;;;;;;8.63;3.93;;;-0.90;99.90;;;;;;4965494;28;20486;-69
2024/01/20 06:01:50;;;;;;;6.13;2.97;;;-0.90;99.90;;;;;;4960226;28;20455;-69
2024/01/20 06:04:17;;;;;;;6.10;5.40;;;-0.90;99.90;;;;;;4966367;28;20956;-69
2024/01/20 06:06:46;;;;;;;3.47;2.60;;;-1.00;99.90;;;;;;4961596;28;20436;-69
2024/01/20 06:09:13;;;;;;;19.47;7.17;;;-1.00;99.90;;;;;;4960887;28;20828;-69
2024/01/20 06:11:39;;;;;;;13.30;7.80;;;-1.00;99.90;;;;;;4961593;28;20459;-69
2024/01/20 06:14:06;;;;;;;4.30;3.00;;;-0.90;99.90;;;;;;4960035;28;20434;-69
2024/01/20 06:16:33;;;;;;;7.83;5.27;;;-0.90;99.90;;;;;;4957613;28;20467;-69
2024/01/20 06:19:00;;;;;;;6.53;5.13;;;-0.90;99.90;;;;;;4959041;28;20441;-69
2024/01/20 06:21:27;;;;;;;7.00;3.70;;;-1.00;99.90;;;;;;4960415;28;20486;-69
2024/01/20 06:23:55;;;;;;;2.47;2.37;;;-1.00;99.90;;;;;;4959945;28;20463;-69
2024/01/20 06:26:22;;;;;;;5.57;3.33;;;-1.10;99.90;;;;;;4959994;28;21026;-69
2024/01/20 06:28:48;;;;;;;5.77;3.27;;;-1.20;99.90;;;;;;4961742;28;20481;-69
2024/01/20 06:31:23;;;;;;;3.20;1.77;;;-1.30;99.90;;;;;;4962413;28;20459;-69
2024/01/20 06:33:50;;;;;;;6.33;4.00;;;-1.30;99.90;;;;;;4964774;28;20467;-69
2024/01/20 06:36:16;;;;;;;10.07;5.33;;;-1.30;99.90;;;;;;4963227;28;20475;-68
2024/01/20 06:38:43;;;;;;;4.50;3.73;;;-1.40;99.90;;;;;;4961594;28;20528;-68
2024/01/20 06:41:11;;;;;;;1.10;1.00;;;-1.30;99.90;;;;;;4959278;28;20602;-69
2024/01/20 06:43:38;;;;;;;2.70;2.50;;;-1.20;99.90;;;;;;4961732;28;20433;-69
2024/01/20 06:46:05;;;;;;;5.20;3.40;;;-1.30;99.90;;;;;;4959136;28;20458;-69
2024/01/20 06:48:33;;;;;;;16.37;4.03;;;-1.30;99.90;;;;;;4963573;28;20553;-70
2024/01/20 06:51:00;;;;;;;6.50;2.53;;;-1.40;99.90;;;;;;4964203;28;20456;-70
2024/01/20 06:53:27;;;;;;;1.97;1.83;;;-1.50;99.90;;;;;;4962371;28;20595;-69
2024/01/20 06:55:54;;;;;;;6.43;4.90;;;-1.50;99.90;;;;;;4961613;28;20519;-69
2024/01/20 06:58:23;;;;;;;5.03;4.07;;;-1.50;99.90;;;;;;4963555;28;20484;-69
2024/01/20 07:00:50;;;;;;;5.13;2.87;;;-1.50;99.90;;;;;;4957322;28;20457;-69
2024/01/20 07:03:17;;;;;;;3.53;3.17;;;-1.50;99.90;;;;;;4956893;28;20816;-69
2024/01/20 07:05:43;;;;;;;4.70;1.70;;;-1.40;99.90;;;;;;4957138;28;21328;-68
2024/01/20 07:08:10;;;;;;;6.30;3.60;;;-1.40;99.90;;;;;;4957255;28;21011;-69
2024/01/20 07:10:37;;;;;;;2.47;2.13;;;-1.20;99.90;;;;;;4959209;28;20456;-69
2024/01/20 07:13:05;;;;;;;12.93;4.50;;;-1.20;99.90;;;;;;4959067;28;20503;-70
2024/01/20 07:15:33;;;;;;;5.03;3.50;;;-1.20;99.90;;;;;;4956983;28;20479;-69
2024/01/20 07:17:59;;;;;;;9.57;3.83;;;-1.10;99.90;;;;;;4955041;28;20423;-69
2024/01/20 07:20:26;;;;;;;4.03;2.17;;;-1.30;99.90;;;;;;4961878;28;20483;-69
2024/01/20 07:22:53;;;;;;;8.50;3.60;;;-1.20;99.90;;;;;;4958263;28;20693;-69
2024/01/20 07:25:20;;;;;;;3.90;3.17;;;-1.10;99.90;;;;;;4959218;28;20972;-68
2024/01/20 07:27:46;;;;;;;1.90;1.33;;;-1.10;99.90;;;;;;4960355;28;20429;-69
2024/01/20 07:30:14;;;;;;;4.43;4.13;;;-1.10;99.90;;;;;;4955646;28;20761;-69
2024/01/20 07:32:42;;;;;;;2.17;2.03;;;-1.20;99.90;;;;;;4962708;28;20447;-70
2024/01/20 07:35:10;;;;;;;5.13;4.00;;;-1.30;99.90;;;;;;4959352;28;21185;-68
2024/01/20 07:37:37;;;;;;;9.27;6.50;;;-1.40;99.90;;;;;;4961144;28;20455;-68
2024/01/20 07:40:04;;;;;;;4.20;2.23;;;-1.40;99.90;;;;;;4957775;28;20472;-68
2024/01/20 07:42:32;;;;;;;3.43;3.23;;;-1.40;99.90;;;;;;4961500;28;20475;-69
2024/01/20 07:44:59;;;;;;;5.13;3.60;;;-1.30;99.90;;;;;;4957618;28;20478;-69
2024/01/20 07:47:26;;;;;;;23.97;4.20;;;-1.30;99.90;;;;;;4958830;28;20454;-70
2024/01/20 07:49:54;;;;;;;8.13;3.53;;;-1.20;99.90;;;;;;4960086;28;20939;-68
2024/01/20 07:52:21;;;;;;;2.03;1.47;;;-1.20;99.90;;;;;;4959643;28;20438;-70
2024/01/20 07:54:48;;;;;;;4.27;2.60;;;-1.20;99.90;;;;;;4959409;28;20506;-69
2024/01/20 07:57:15;;;;;;;5.00;4.50;;;-1.10;99.90;;;;;;4963132;28;20422;-70
2024/01/20 07:59:41;;;;;;;3.83;3.23;;;-0.90;99.90;;;;;;4964694;28;20471;-70
2024/01/20 08:02:08;;;;;;;3.10;2.27;;;-0.80;99.90;;;;;;4959855;28;20435;-70
2024/01/20 08:04:35;;;;;;;4.80;4.00;;;-0.70;99.90;;;;;;4955336;28;20469;-69
2024/01/20 08:07:03;;;;;;;2.00;1.90;;;-0.70;99.90;;;;;;4956853;28;20952;-70
2024/01/20 08:09:30;;;;;;;13.90;4.30;;;-0.80;99.90;;;;;;4957644;28;20464;-69
2024/01/20 08:11:57;;;;;;;4.67;4.27;;;-0.80;99.90;;;;;;4958689;28;20455;-69
2024/01/20 08:14:24;;;;;;;1.60;1.50;;;-0.80;99.90;;;;;;4958578;28;20439;-69
2024/01/20 08:16:50;;;;;;;6.30;3.80;;;-0.80;99.90;;;;;;4961702;28;21091;-69
2024/01/20 08:19:17;;;;;;;4.17;2.43;;;-0.80;99.90;;;;;;4954883;28;20447;-69
2024/01/20 08:21:44;;;;;;;6.13;5.00;;;-0.80;99.90;;;;;;4963730;28;20494;-70
2024/01/20 08:24:12;;;;;;;3.10;2.17;;;-0.80;99.90;;;;;;4965820;28;20438;-70
2024/01/20 08:26:39;;;;;;;4.37;2.43;;;-0.80;99.90;;;;;;4961923;28;20843;-69
2024/01/20 08:29:05;;;;;;;6.83;3.10;;;-0.70;99.90;;;;;;4963113;28;20430;-69
2024/01/20 08:31:32;;;;;;;7.83;4.70;;;-0.70;99.90;;;;;;4964264;28;20810;-70
2024/01/20 08:33:59;;;;;;;4.43;2.40;;;-0.70;99.90;;;;;;4965167;28;20430;-69
2024/01/20 08:36:25;;;;;;;5.70;3.30;;;-0.70;99.90;;;;;;4961025;28;20457;-69
2024/01/20 08:38:52;;;;;;;4.00;3.23;;;-0.50;99.90;;;;;;4960429;28;20524;-69
2024/01/20 08:41:20;;;;;;;3.00;2.80;;;-0.40;99.90;;;;;;4961153;28;20497;-69
2024/01/20 08:43:48;;;;;;;4.27;2.53;;;-0.20;99.90;;;;;;4961909;28;20446;-69
2024/01/20 08:46:14;;;;;;;2.30;1.60;;;0.00;99.90;;;;;;4961153;28;20484;-69
2024/01/20 08:48:41;;;;;;;3.53;3.03;;;0.30;99.90;;;;;;4964759;28;20436;-69
2024/01/20 08:51:08;;;;;;;8.20;3.40;;;0.50;99.90;;;;;;4961895;28;20555;-69
2024/01/20 08:53:35;;;;;;;1.87;1.77;;;0.80;99.90;;;;;;4961002;28;20419;-68
2024/01/20 08:56:02;;;;;;;4.93;4.50;;;1.20;99.90;;;;;;4965055;28;20543;-69
2024/01/20 08:58:31;;;;;;;4.93;4.10;;;1.50;99.90;;;;;;4964400;28;20498;-69
2024/01/20 09:00:58;;;;;;;7.30;3.77;;;2.20;99.90;;;;;;4951010;28;20469;-70
2024/01/20 09:03:25;;;;;;;9.53;4.00;;;2.70;99.90;;;;;;4960809;28;20958;-70
2024/01/20 09:05:52;;;;;;;6.50;3.13;;;3.40;99.90;;;;;;4963060;28;20532;-69
2024/01/20 09:08:19;;;;;;;4.60;3.80;;;4.00;99.90;;;;;;4961277;28;20458;-67
2024/01/20 09:10:45;;;;;;;3.93;3.13;;;4.70;99.90;;;;;;4959137;28;20472;-69
2024/01/20 09:13:12;;;;;;;9.87;3.97;;;5.30;99.90;;;;;;4958412;28;20495;-68
2024/01/20 09:15:40;;;;;;;12.33;3.40;;;5.60;99.90;;;;;;4962553;28;20831;-68
2024/01/20 09:18:07;;;;;;;3.10;2.20;;;5.00;99.90;;;;;;4963894;28;20459;-68
2024/01/20 09:20:34;;;;;;;5.13;2.77;;;3.90;99.90;;;;;;4959018;28;20465;-68
2024/01/20 09:23:01;;;;;;;6.20;3.40;;;3.20;99.90;;;;;;4958040;28;20466;-70
2024/01/20 09:25:27;;;;;;;8.83;3.57;;;2.90;99.90;;;;;;4955008;28;20454;-68
2024/01/20 09:27:54;;;;;;;3.93;2.50;;;3.40;99.90;;;;;;4959079;28;20447;-68
2024/01/20 09:30:21;;;;;;;3.90;3.00;;;4.40;99.90;;;;;;4960076;28;20489;-69
2024/01/20 09:32:49;;;;;;;5.07;2.93;;;4.80;99.90;;;;;;4961476;28;20460;-69
2024/01/20 09:35:16;;;;;;;2.63;2.17;;;5.50;99.90;;;;;;4963247;28;20475;-69
2024/01/20 09:37:43;;;;;;;4.23;1.80;;;5.70;99.90;;;;;;4959468;28;20444;-69
2024/01/20 09:40:10;;;;;;;8.30;2.90;;;4.80;99.90;;;;;;4962659;28;21031;-69
2024/01/20 09:42:37;;;;;;;6.53;3.73;;;3.80;99.90;;;;;;4961428;28;20480;-69
2024/01/20 09:45:05;;;;;;;4.03;3.10;;;3.30;99.90;;;;;;4957476;28;20457;-69
2024/01/20 09:47:32;;;;;;;12.63;3.70;;;2.90;99.90;;;;;;4959901;28;20529;-69
2024/01/20 09:50:00;;;;;;;5.33;2.97;;;2.80;99.90;;;;;;4955478;28;20431;-69
2024/01/20 09:52:28;;;;;;;3.63;2.00;;;2.70;99.90;;;;;;4960377;28;20478;-69
2024/01/20 09:55:07;;;;;;;4.80;2.40;;;2.50;99.90;;;;;;4956330;28;20453;-68
2024/01/20 09:57:37;;;;;;;4.13;2.90;;;2.50;99.90;;;;;;4958982;28;20797;-69
2024/01/20 10:00:05;;;;;;;5.63;3.27;;;2.50;99.90;;;;;;4958857;28;20430;-69
2024/01/20 10:02:33;;;;;;;3.33;3.00;;;2.70;99.90;;;;;;4960379;28;21003;-69
2024/01/20 10:05:04;;;;;;;4.40;3.43;;;3.20;99.90;;;;;;4954594;28;20493;-69
2024/01/20 10:07:32;;;;;;;3.20;1.97;;;4.10;99.90;;;;;;4961710;28;20506;-69
2024/01/20 10:09:59;;;;;;;6.23;3.57;;;5.10;99.90;;;;;;4965533;28;20446;-69
2024/01/20 10:12:26;;;;;;;8.80;2.93;;;6.50;99.90;;;;;;4966065;28;20866;-69
2024/01/20 10:14:53;;;;;;;1.63;1.40;;;6.30;99.90;;;;;;4971750;28;20483;-69
2024/01/20 10:17:20;;;;;;;8.23;4.30;;;5.50;99.90;;;;;;4968005;28;20459;-69
2024/01/20 10:19:47;;;;;;;3.47;2.33;;;4.90;99.90;;;;;;4963117;28;20442;-69
2024/01/20 10:22:15;;;;;;;3.67;2.90;;;5.00;99.90;;;;;;4964140;28;20490;-69
2024/01/20 10:24:48;;;;;;;6.00;3.73;;;5.20;99.90;;;;;;4961187;28;20485;-69
2024/01/20 10:27:19;;;;;;;8.93;3.27;;;5.50;99.90;;;;;;4962581;28;20533;-69
2024/01/20 10:29:47;;;;;;;4.03;2.47;;;5.40;99.90;;;;;;4963202;28;21109;-69
2024/01/20 10:32:14;;;;;;;3.67;2.63;;;5.10;99.90;;;;;;4963001;28;20452;-69
2024/01/20 10:34:41;;;;;;;4.10;2.37;;;4.70;99.90;;;;;;4962591;28;20487;-69
2024/01/20 10:37:11;;;;;;;11.00;2.67;;;4.60;99.90;;;;;;4962570;28;20450;-69
2024/01/20 10:39:43;;;;;;;4.17;3.67;;;4.20;99.90;;;;;;4964439;28;20833;-69
2024/01/20 10:42:12;;;;;;;1.00;0.90;;;4.00;99.90;;;;;;4963917;28;20477;-69
2024/01/20 10:44:41;;;;;;;7.90;3.67;;;4.20;99.90;;;;;;4965184;28;20493;-69
2024/01/20 10:47:16;;;;;;;2.80;2.23;;;4.10;99.90;;;;;;4961275;28;20463;-68
2024/01/20 10:49:45;;;;;;;2.50;2.00;;;4.10;99.90;;;;;;4965224;28;20440;-69
2024/01/20 10:52:12;;;;;;;4.53;2.30;;;4.10;99.90;;;;;;4961309;28;20437;-69
2024/01/20 10:54:43;;;;;;;5.40;2.40;;;4.10;99.90;;;;;;4964004;28;20974;-68
2024/01/20 10:57:10;;;;;;;2.50;1.87;;;4.10;99.90;;;;;;4962672;28;20783;-69
2024/01/20 10:59:41;;;;;;;1.97;1.77;;;4.40;99.90;;;;;;4965008;28;20476;-68
2024/01/20 11:02:10;;;;;;;3.20;2.37;;;4.90;99.90;;;;;;4960946;28;20567;-68
2024/01/20 11:04:39;;;;;;;5.57;3.03;;;5.40;99.90;;;;;;4958542;28;20856;-69
2024/01/20 11:07:08;;;;;;;1.47;1.07;;;5.60;99.90;;;;;;4962755;28;20475;-68
2024/01/20 11:09:35;;;;;;;3.37;2.03;;;5.50;99.90;;;;;;4960589;28;20510;-68
2024/01/20 11:12:06;;;;;;;1.10;1.00;;;5.60;99.90;;;;;;4960420;28;20457;-69
2024/01/20 11:14:33;;;;;;;4.30;2.00;;;6.00;99.90;;;;;;4960936;28;20496;-69
2024/01/20 11:17:10;;;;;;;3.93;2.10;;;6.40;99.90;;;;;;4959995;28;20452;-68
2024/01/20 11:19:36;;;;;;;5.53;4.10;;;6.60;99.90;;;;;;4970073;28;20486;-69
2024/01/20 11:22:03;;;;;;;5.57;3.00;;;7.00;99.90;;;;;;4957545;28;20487;-69
2024/01/20 11:24:38;;;;;;;3.17;1.83;;;6.60;99.90;;;;;;4950750;28;20596;-68
2024/01/20 11:27:06;;;;;;;2.40;1.83;;;7.30;99.90;;;;;;4962489;28;20437;-69
2024/01/20 11:29:33;;;;;;;5.40;2.40;;;8.00;99.90;;;;;;4959598;28;20460;-69
2024/01/20 11:32:00;;;;;;;2.93;2.00;;;8.80;99.90;;;;;;4965724;28;20519;-68
2024/01/20 11:34:27;;;;;;;6.73;3.30;;;10.10;99.90;;;;;;4957999;28;20875;-69
2024/01/20 11:36:54;;;;;;;4.40;2.40;;;11.00;99.90;;;;;;4962362;28;20439;-70
2024/01/20 11:39:23;;;;;;;5.60;2.77;;;10.70;99.90;;;;;;4960836;28;20946;-69
2024/01/20 11:42:00;;;;;;;2.80;2.50;;;9.80;99.90;;;;;;4962589;28;20514;-69
2024/01/20 11:44:31;;;;;;;7.83;3.43;;;8.70;99.90;;;;;;4959497;28;20569;-69
2024/01/20 11:46:58;;;;;;;3.80;2.33;;;7.70;99.90;;;;;;4962163;28;20450;-69
2024/01/20 11:49:24;;;;;;;4.67;2.50;;;8.30;99.90;;;;;;4960854;28;20796;-69
2024/01/20 11:51:51;;;;;;;2.90;2.70;;;9.30;99.90;;;;;;4966672;28;20482;-69
2024/01/20 11:54:18;;;;;;;4.53;1.93;;;10.50;99.90;;;;;;4961641;28;20585;-69
2024/01/20 11:56:45;;;;;;;3.27;1.90;;;11.10;99.90;;;;;;4960714;28;20458;-69
2024/01/20 11:59:14;;;;;;;3.00;1.90;;;11.40;99.90;;;;;;4962123;28;20447;-68
2024/01/20 12:01:42;;;;;;;4.10;2.30;;;11.40;99.90;;;;;;4963323;28;20472;-69
2024/01/20 12:04:09;;;;;;;4.73;1.60;;;11.80;99.90;;;;;;4969817;28;20443;-68
2024/01/20 12:06:35;;;;;;;2.90;2.30;;;12.20;99.90;;;;;;4963170;28;20588;-69
2024/01/20 12:09:03;;;;;;;3.87;2.13;;;11.70;99.90;;;;;;4966692;28;20455;-69
2024/01/20 12:11:30;;;;;;;2.90;1.97;;;12.50;99.90;;;;;;4960862;28;20473;-68
2024/01/20 12:13:57;;;;;;;1.67;1.57;;;12.60;98.90;;;;;;4962525;28;20494;-68
2024/01/20 12:16:25;;;;;;;2.43;2.00;;;12.10;98.40;;;;;;4966383;28;20463;-70
2024/01/20 12:18:53;;;;;;;2.60;2.00;;;11.70;98.90;;;;;;4967570;28;20455;-68
2024/01/20 12:21:20;;;;;;;3.70;2.40;;;11.80;99.50;;;;;;4962824;28;20483;-68
2024/01/20 12:23:47;;;;;;;3.87;2.30;;;12.20;98.20;;;;;;4956853;28;20554;-68
2024/01/20 12:26:16;;;;;;;3.47;2.60;;;12.10;97.90;;;;;;4964394;28;20490;-68
2024/01/20 12:28:46;;;;;;;4.60;2.50;;;12.20;97.30;;;;;;4963332;28;20553;-68
2024/01/20 12:31:13;;;;;;;3.57;2.23;;;12.10;97.30;;;;;;4965012;28;20529;-69
2024/01/20 12:33:40;;;;;;;2.87;2.33;;;11.90;97.30;;;;;;4963448;28;20538;-68
2024/01/20 12:36:08;;;;;;;3.73;2.03;;;11.90;97.10;;;;;;4964355;28;20644;-68
2024/01/20 12:38:35;;;;;;;8.00;2.70;;;12.30;96.70;;;;;;4967045;28;20454;-69
2024/01/20 12:41:01;;;;;;;4.60;2.47;;;12.30;96.00;;;;;;4963194;28;20455;-68
2024/01/20 12:43:30;;;;;;;3.30;2.37;;;12.00;96.30;;;;;;4959036;28;20902;-68
2024/01/20 12:45:57;;;;;;;2.43;1.90;;;11.90;95.70;;;;;;4962747;28;20487;-68
2024/01/20 12:48:24;;;;;;;6.40;3.13;;;11.70;96.10;;;;;;4960906;28;20540;-67